createdAt,value
2023-05-19T00:01:02.005Z,9.92
2023-05-19T00:05:05.449Z,9.91
2023-05-19T00:09:09.997Z,9.84
2023-05-19T00:13:13.215Z,9.87
2023-05-19T00:17:18.478Z,9.84
2023-05-19T00:21:22.404Z,9.84
2023-05-19T00:25:25.433Z,9.84
2023-05-19T00:29:28.577Z,9.81
2023-05-19T00:33:34.053Z,9.79
2023-05-19T00:37:37.053Z,9.73
2023-05-19T00:41:39.766Z,9.84
2023-05-19T00:45:42.673Z,9.84
2023-05-19T00:49:47.102Z,9.86
2023-05-19T00:53:52.419Z,9.84
2023-05-19T00:57:59.215Z,9.86
2023-05-19T01:02:03.131Z,9.82
2023-05-19T01:06:08.163Z,9.82
2023-05-19T01:10:13.565Z,9.78
2023-05-19T01:14:17.131Z,9.77
2023-05-19T01:18:30.764Z,9.72
2023-05-19T01:23:17.063Z,9.72
2023-05-19T01:27:36.911Z,9.73
2023-05-19T01:31:44.705Z,9.71
2023-05-19T01:35:50.477Z,9.67
2023-05-19T01:39:55.868Z,9.64
2023-05-19T01:43:59.468Z,9.65
2023-05-19T01:48:08.429Z,9.65
2023-05-19T01:52:13.409Z,9.62
2023-05-19T01:56:18.192Z,9.61
2023-05-19T02:00:31.768Z,9.57
2023-05-19T02:04:42.661Z,9.56
2023-05-19T02:08:55.873Z,9.60
2023-05-19T02:13:06.319Z,9.59
2023-05-19T02:17:12.683Z,9.56
2023-05-19T02:21:16.884Z,9.58
2023-05-19T02:25:19.970Z,9.58
2023-05-19T02:29:23.326Z,9.60
2023-05-19T02:33:27.665Z,9.59
2023-05-19T02:37:32.819Z,9.57
2023-05-19T02:41:36.191Z,9.58
2023-05-19T02:45:39.202Z,9.57
2023-05-19T02:49:43.391Z,9.56
2023-05-19T02:53:47.717Z,9.51
2023-05-19T02:57:50.787Z,9.62
2023-05-19T03:01:56.784Z,9.63
2023-05-19T03:06:02.201Z,9.66
2023-05-19T03:10:08.718Z,9.71
2023-05-19T03:14:12.411Z,9.67
2023-05-19T03:18:16.850Z,9.69
2023-05-19T03:22:21.294Z,9.74
2023-05-19T03:26:26.408Z,9.80
2023-05-19T03:30:30.155Z,9.84
2023-05-19T03:34:34.118Z,9.80
2023-05-19T03:38:37.195Z,9.84
2023-05-19T03:42:42.200Z,9.92
2023-05-19T03:46:45.560Z,9.87
2023-05-19T03:50:48.796Z,9.98
2023-05-19T03:54:52.019Z,9.96
2023-05-19T03:58:56.819Z,9.93
2023-05-19T04:03:00.730Z,9.99
2023-05-19T04:07:04.081Z,9.99
2023-05-19T04:11:07.034Z,10.11
2023-05-19T04:15:12.858Z,10.09
2023-05-19T04:19:15.988Z,10.11
2023-05-19T04:23:19.175Z,10.19
2023-05-19T04:27:22.516Z,10.19
2023-05-19T04:31:28.958Z,10.24
2023-05-19T04:35:34.016Z,10.15
2023-05-19T04:39:39.122Z,10.35
2023-05-19T04:43:44.896Z,10.33
2023-05-19T04:47:49.462Z,10.44
2023-05-19T04:51:55.546Z,10.50
2023-05-19T04:56:01.207Z,10.51
2023-05-19T05:00:08.365Z,10.45
2023-05-19T05:04:13.394Z,10.69
2023-05-19T05:08:22.136Z,10.71
2023-05-19T05:12:25.666Z,10.81
2023-05-19T05:16:29.146Z,10.86
2023-05-19T05:20:34.991Z,10.89
2023-05-19T05:24:38.606Z,11.09
2023-05-19T05:28:43.249Z,11.00
2023-05-19T05:32:46.432Z,11.02
2023-05-19T05:36:51.336Z,11.24
2023-05-19T05:40:54.838Z,11.07
2023-05-19T05:44:57.600Z,11.17
2023-05-19T05:49:01.193Z,11.29
2023-05-19T05:53:08.495Z,11.29
2023-05-19T05:57:12.479Z,11.35
2023-05-19T06:01:17.172Z,11.32
2023-05-19T06:05:20.502Z,11.14
2023-05-19T06:09:24.889Z,11.38
2023-05-19T06:13:27.784Z,11.48
2023-05-19T06:17:30.499Z,11.63
2023-05-19T06:21:33.630Z,11.68
2023-05-19T06:25:38.275Z,11.64
2023-05-19T06:29:41.274Z,11.59
2023-05-19T06:33:44.267Z,11.63
2023-05-19T06:37:47.143Z,11.26
2023-05-19T06:41:51.513Z,11.21
2023-05-19T06:45:54.510Z,11.23
2023-05-19T06:50:00.241Z,11.17
2023-05-19T06:54:03.170Z,11.36
2023-05-19T06:58:07.978Z,11.47
2023-05-19T07:02:10.950Z,11.56
2023-05-19T07:06:14.504Z,11.64
2023-05-19T07:10:17.535Z,11.86
2023-05-19T07:14:21.782Z,11.96
2023-05-19T07:18:24.834Z,11.96
2023-05-19T07:22:28.073Z,11.86
2023-05-19T07:26:31.700Z,11.94
2023-05-19T07:30:36.270Z,11.89
2023-05-19T07:34:39.537Z,12.01
2023-05-19T07:38:42.559Z,11.96
2023-05-19T07:42:46.076Z,12.11
2023-05-19T07:46:50.530Z,12.11
2023-05-19T07:50:54.757Z,11.87
2023-05-19T07:54:57.796Z,11.82
2023-05-19T07:59:00.805Z,11.95
2023-05-19T08:03:05.528Z,11.83
2023-05-19T08:07:08.760Z,11.87
2023-05-19T08:11:12.429Z,11.89
2023-05-19T08:15:16.754Z,11.95
2023-05-19T08:19:21.124Z,11.83
2023-05-19T08:23:24.139Z,11.92
2023-05-19T08:27:27.245Z,11.93
2023-05-19T08:31:30.722Z,11.98
2023-05-19T08:35:35.084Z,11.95
2023-05-19T08:39:37.724Z,12.18
2023-05-19T08:43:40.816Z,12.06
2023-05-19T08:47:47.266Z,12.13
2023-05-19T08:51:59.344Z,12.05
2023-05-19T08:56:10.309Z,12.22
2023-05-19T09:00:15.472Z,12.16
2023-05-19T09:04:18.741Z,12.07
2023-05-19T09:08:23.258Z,12.19
2023-05-19T09:12:26.218Z,12.26
2023-05-19T09:16:30.212Z,12.11
2023-05-19T09:20:33.669Z,12.29
2023-05-19T09:24:40.700Z,12.55
2023-05-19T09:28:43.659Z,12.62
2023-05-19T09:32:50.399Z,12.73
2023-05-19T09:36:53.674Z,12.85
2023-05-19T09:41:00.224Z,12.73
2023-05-19T09:45:03.647Z,12.80
2023-05-19T09:49:10.854Z,13.04
2023-05-19T09:53:15.686Z,13.31
2023-05-19T09:57:27.210Z,13.59
2023-05-19T10:01:31.711Z,13.94
2023-05-19T10:05:35.050Z,13.66
2023-05-19T10:09:41.028Z,13.37
2023-05-19T10:13:47.528Z,13.37
2023-05-19T10:17:52.163Z,13.27
2023-05-19T10:21:56.151Z,13.43
2023-05-19T10:26:04.398Z,13.36
2023-05-19T10:30:15.667Z,13.46
2023-05-19T10:34:44.638Z,13.46
2023-05-19T10:38:53.798Z,13.51
2023-05-19T10:43:15.301Z,13.49
2023-05-19T10:47:25.556Z,13.57
2023-05-19T10:51:33.048Z,13.42
2023-05-19T10:55:52.870Z,13.59
2023-05-19T10:59:57.248Z,13.79
2023-05-19T11:04:09.358Z,13.89
2023-05-19T11:08:13.958Z,14.08
2023-05-19T11:12:24.645Z,14.08
2023-05-19T11:16:30.185Z,14.27
2023-05-19T11:20:35.430Z,14.25
2023-05-19T11:24:40.321Z,14.26
2023-05-19T11:28:43.452Z,14.40
2023-05-19T11:32:49.403Z,14.43
2023-05-19T11:36:55.280Z,14.18
2023-05-19T11:40:58.860Z,14.00
2023-05-19T11:45:03.003Z,14.07
2023-05-19T11:49:06.920Z,14.14
2023-05-19T11:53:13.860Z,14.43
2023-05-19T11:57:17.263Z,14.62
2023-05-19T12:01:20.331Z,14.66
2023-05-19T12:05:24.946Z,14.50
2023-05-19T12:09:31.284Z,14.15
2023-05-19T12:13:34.960Z,14.22
2023-05-19T12:17:37.836Z,14.31
2023-05-19T12:21:40.699Z,14.43
2023-05-19T12:25:45.381Z,14.59
2023-05-19T12:29:52.778Z,14.42
2023-05-19T12:33:57.649Z,14.62
2023-05-19T12:38:08.687Z,14.64
2023-05-19T12:42:13.842Z,14.74
2023-05-19T12:46:17.557Z,14.89
2023-05-19T12:50:20.613Z,14.77
2023-05-19T12:54:25.117Z,14.64
2023-05-19T12:58:29.583Z,14.77
2023-05-19T13:02:34.439Z,14.71
2023-05-19T13:06:37.581Z,14.58
2023-05-19T13:10:41.953Z,14.69
2023-05-19T13:14:46.745Z,14.44
2023-05-19T13:18:49.714Z,14.34
2023-05-19T13:22:53.618Z,14.31
2023-05-19T13:26:56.960Z,14.21
2023-05-19T13:31:01.666Z,14.31
2023-05-19T13:35:04.650Z,14.37
2023-05-19T13:39:07.537Z,14.49
2023-05-19T13:43:10.525Z,14.61
2023-05-19T13:47:15.062Z,14.63
2023-05-19T13:51:18.459Z,14.40
2023-05-19T13:55:21.853Z,14.31
2023-05-19T13:59:24.963Z,14.19
2023-05-19T14:03:30.026Z,14.19
2023-05-19T14:07:35.082Z,14.33
2023-05-19T14:11:38.495Z,14.37
2023-05-19T14:15:41.578Z,14.57
2023-05-19T14:19:45.960Z,14.78
2023-05-19T14:23:49.027Z,14.85
2023-05-19T14:27:53.771Z,14.81
2023-05-19T14:31:57.100Z,14.75
2023-05-19T14:36:01.486Z,14.53
2023-05-19T14:40:05.649Z,14.51
2023-05-19T14:44:08.530Z,14.39
2023-05-19T14:48:12.234Z,14.33
2023-05-19T14:52:20.442Z,14.21
2023-05-19T14:56:23.639Z,14.12
2023-05-19T15:00:27.268Z,14.07
2023-05-19T15:04:33.025Z,14.05
2023-05-19T15:08:37.930Z,14.01
2023-05-19T15:12:40.940Z,14.06
2023-05-19T15:16:43.886Z,14.03
2023-05-19T15:20:46.985Z,13.87
2023-05-19T15:24:52.013Z,13.97
2023-05-19T15:28:57.416Z,13.91
2023-05-19T15:33:00.596Z,13.95
2023-05-19T15:37:04.076Z,13.97
2023-05-19T15:41:13.781Z,13.99
2023-05-19T15:45:16.764Z,13.91
2023-05-19T15:49:19.593Z,13.94
2023-05-19T15:53:23.471Z,13.98
2023-05-19T15:57:28.371Z,13.97
2023-05-19T16:01:32.021Z,13.98
2023-05-19T16:05:37.526Z,13.84
2023-05-19T16:09:40.619Z,13.82
2023-05-19T16:13:44.937Z,13.71
2023-05-19T16:17:48.247Z,13.67
2023-05-19T16:21:50.996Z,13.65
2023-05-19T16:25:54.897Z,13.63
2023-05-19T16:30:01.146Z,13.62
2023-05-19T16:34:04.258Z,13.59
2023-05-19T16:38:08.926Z,13.58
2023-05-19T16:42:11.906Z,13.54
2023-05-19T16:46:16.941Z,13.53
2023-05-19T16:50:20.540Z,13.51
2023-05-19T16:54:23.769Z,13.41
2023-05-19T16:58:28.023Z,13.40
2023-05-19T17:02:34.477Z,13.34
2023-05-19T17:06:38.070Z,13.33
2023-05-19T17:10:41.333Z,13.31
2023-05-19T17:14:44.729Z,13.28
2023-05-19T17:18:49.311Z,13.25
2023-05-19T17:22:52.888Z,13.21
2023-05-19T17:26:55.935Z,13.18
2023-05-19T17:30:58.973Z,13.09
2023-05-19T17:35:06.787Z,13.10
2023-05-19T17:39:09.701Z,13.06
2023-05-19T17:43:12.991Z,13.07
2023-05-19T17:47:15.840Z,13.02
2023-05-19T17:51:21.350Z,13.04
2023-05-19T17:55:30.093Z,13.02
2023-05-19T17:59:33.666Z,13.01
2023-05-19T18:03:37.434Z,12.99
2023-05-19T18:07:44.003Z,12.93
2023-05-19T18:11:47.321Z,12.91
2023-05-19T18:15:50.349Z,12.90
2023-05-19T18:19:54.764Z,12.87
2023-05-19T18:24:02.721Z,12.86
2023-05-19T18:28:06.846Z,12.84
2023-05-19T18:32:10.288Z,12.83
2023-05-19T18:36:13.765Z,12.78
2023-05-19T18:40:18.341Z,12.77
2023-05-19T18:44:21.897Z,12.70
2023-05-19T18:48:25.779Z,12.70
2023-05-19T18:52:29.355Z,12.72
2023-05-19T18:56:34.676Z,12.67
2023-05-19T19:00:37.936Z,12.68
2023-05-19T19:04:41.254Z,12.67
2023-05-19T19:08:44.321Z,12.64
2023-05-19T19:12:58.761Z,12.61
2023-05-19T19:17:01.950Z,12.59
2023-05-19T19:21:06.019Z,12.59
2023-05-19T19:25:10.420Z,12.60
2023-05-19T19:29:16.932Z,12.61
2023-05-19T19:33:20.104Z,12.61
2023-05-19T19:37:22.766Z,12.61
2023-05-19T19:41:26.738Z,12.56
2023-05-19T19:45:32.501Z,12.52
2023-05-19T19:49:35.674Z,12.49
2023-05-19T19:53:39.292Z,12.54
2023-05-19T19:57:47.279Z,12.54
2023-05-19T20:01:52.257Z,12.51
2023-05-19T20:05:57.039Z,12.51
2023-05-19T20:10:00.240Z,12.51
2023-05-19T20:14:03.052Z,12.51
2023-05-19T20:18:09.853Z,12.53
2023-05-19T20:22:12.788Z,12.54
2023-05-19T20:26:16.186Z,12.53
2023-05-19T20:30:20.432Z,12.53
2023-05-19T20:34:25.101Z,12.51
2023-05-19T20:38:28.429Z,12.51
2023-05-19T20:42:31.880Z,12.47
2023-05-19T20:46:35.123Z,12.41
2023-05-19T20:50:40.905Z,12.42
2023-05-19T20:54:44.058Z,12.44
2023-05-19T20:58:47.410Z,12.42
2023-05-19T21:02:53.259Z,12.42
2023-05-19T21:06:57.736Z,12.41
2023-05-19T21:11:03.301Z,12.39
2023-05-19T21:15:08.218Z,12.37
2023-05-19T21:19:11.214Z,12.39
2023-05-19T21:23:15.701Z,12.35
2023-05-19T21:27:18.955Z,12.27
2023-05-19T21:31:22.189Z,12.34
2023-05-19T21:35:27.002Z,12.36
2023-05-19T21:39:31.877Z,12.29
2023-05-19T21:43:35.294Z,12.31
2023-05-19T21:47:38.444Z,12.26
2023-05-19T21:51:41.613Z,12.30
2023-05-19T21:55:46.481Z,12.31
2023-05-19T21:59:49.619Z,12.33
2023-05-19T22:03:52.470Z,12.34
2023-05-19T22:07:55.305Z,12.33
2023-05-19T22:11:59.992Z,12.30
2023-05-19T22:16:04.871Z,12.28
2023-05-19T22:20:09.149Z,12.28
2023-05-19T22:24:12.560Z,12.32
2023-05-19T22:28:17.266Z,12.31
2023-05-19T22:32:20.152Z,12.33
2023-05-19T22:36:23.196Z,12.35
2023-05-19T22:40:26.574Z,12.33
2023-05-19T22:44:31.206Z,12.26
2023-05-19T22:48:34.282Z,12.32
2023-05-19T22:52:37.975Z,12.33
2023-05-19T22:56:44.421Z,12.25
2023-05-19T23:00:50.012Z,12.35
2023-05-19T23:04:53.063Z,12.35
2023-05-19T23:09:03.481Z,12.39
2023-05-19T23:13:06.704Z,12.39
2023-05-19T23:17:10.569Z,12.44
2023-05-19T23:21:14.162Z,12.36
2023-05-19T23:25:17.278Z,12.44
2023-05-19T23:29:20.195Z,12.42
2023-05-19T23:33:26.479Z,12.47
2023-05-19T23:37:29.500Z,12.51
2023-05-19T23:41:32.885Z,12.39
2023-05-19T23:45:36.053Z,12.48
2023-05-19T23:49:40.462Z,12.54
2023-05-19T23:53:43.773Z,12.56
2023-05-19T23:57:46.765Z,12.56
